Goshen, Massachusetts
Current Conditions -  °F | °C
As of 6:56 AM on Wednesday 28 Jan 2015 (Local Time) from KBAF Reporting Station
Clear Clear  
Wind Chill: -2°   Ceiling: Unl
Heat Index: 12°   Visibility: 10mi
Dew Point:   Wind: 12mph
Humidity: 59%   Direction: 340°NNW
Pressure: 29.93"   Gusts: NA
Location:  42.44°N, 72.8°W
Report Text: KBAF 281156Z 34010KT 10SM CLR M11/M18 A2993 RMK AO2 T11111178 $
Loading
Personal Weather Stations






























Interactive Weather Map New forecast layout! Learn more

10-Day Weather Forecast

Advertisements
Track Severe Weather on mobile